Aidablu — IBWX — position and weather

sailwx.info

Track history (hours):
 
Tides and Currents Weather Stations Pressure Air Temp Water Temp Dewpoint Dewpoint Depression Visibility Wind Speed Wind Dir Waves Ship Positions

Aidablu

Last reported at 2015-Mar-30 11:26 UTC. Time now 2015-Mar-31 08:32 UTC.
Position N 32°39' W 016°54'.

Length 252 m; draft 7.3 m.

Type: Ship. MMSI: 247282500.

Date/timePositionNaut miles runAvg speedWind from/ knotsBaromVisibWave heightAir tempDewpointWater temp
2015-Mar-30 11:26N 32°39' W 016°54'0 0.1
2015-Mar-30 06:27N 32°38' W 016°54'7 6.2
2015-Mar-30 05:17N 32°32' W 016°52'1013.6
2015-Mar-30 04:33N 32°22' W 016°48'3213.2
2015-Mar-30 02:07N 31°52' W 016°36'4 6.7
2015-Mar-30 01:27N 31°47' W 016°35'16 6.7
2015-Mar-29 23:07N 31°32' W 016°29'4 7.0
2015-Mar-29 22:31N 31°28' W 016°28'8 7.3
2015-Mar-29 21:27N 31°21' W 016°25'147 7.8
2015-Mar-29 02:33N 29°01' W 015°33'1413.8
2015-Mar-29 01:33N 28°48' W 015°28'1313.4
2015-Mar-29 00:33N 28°35' W 015°24'1313.5
2015-Mar-28 23:33N 28°22' W 015°19'1413.7
2015-Mar-28 22:33N 28°09' W 015°22'3 2.6
2015-Mar-28 21:33N 28°08' W 015°25'0 0.0
2015-Mar-28 20:29N 28°08' W 015°25'0 0.0
2015-Mar-28 19:32N 28°08' W 015°25'0 0.0
2015-Mar-28 18:31N 28°08' W 015°25'0 0.0
2015-Mar-28 17:22N 28°08' W 015°25'0 0.0
2015-Mar-28 16:33N 28°08' W 015°25'0 0.0
2015-Mar-28 15:24N 28°08' W 015°25'0 0.0
2015-Mar-28 14:33N 28°08' W 015°25'0 0.0
2015-Mar-28 13:26N 28°08' W 015°25'0 0.0
2015-Mar-28 12:32N 28°08' W 015°25'0 0.0
2015-Mar-28 11:31N 28°08' W 015°25'0 0.0
2015-Mar-28 10:22N 28°08' W 015°25'0 0.0
2015-Mar-28 09:33N 28°08' W 015°25'0 0.0
2015-Mar-28 08:24N 28°08' W 015°25'0 0.0
2015-Mar-28 07:33N 28°08' W 015°25'0 0.0
2015-Mar-28 06:23N 28°08' W 015°25'0 0.0
2015-Mar-28 05:32N 28°08' W 015°25'0 0.0
2015-Mar-28 04:28N 28°08' W 015°25'0 0.0
2015-Mar-28 03:29N 28°08' W 015°25'0 0.0
2015-Mar-28 02:30N 28°08' W 015°25'0 0.0
2015-Mar-28 01:24N 28°08' W 015°25'0 0.3
2015-Mar-28 00:33N 28°08' W 015°25'5 4.5
2015-Mar-27 23:32N 28°12' W 015°23'1313.3
2015-Mar-27 22:33N 28°14' W 015°38'1413.1
2015-Mar-27 21:31N 28°17' W 015°53'1414.3
2015-Mar-27 20:33N 28°24' W 016°06'8 1.2
2015-Mar-27 13:31N 28°28' W 016°14'0 0.0
2015-Mar-27 10:27N 28°28' W 016°14'0 0.0
2015-Mar-27 08:14N 28°28' W 016°14'0 0.2
2015-Mar-27 07:31N 28°29' W 016°14'4 4.4
2015-Mar-27 06:33N 28°27' W 016°10'1212.4
2015-Mar-27 05:34N 28°21' W 015°58'1312.8
2015-Mar-27 04:34N 28°17' W 015°44'1313.1
2015-Mar-27 03:34N 28°16' W 015°29'1312.8
2015-Mar-27 02:33N 28°13' W 015°15'1313.3
2015-Mar-27 01:33N 28°09' W 015°00'1212.3
2015-Mar-27 00:34N 28°03' W 014°48'1413.8
2015-Mar-26 23:33N 27°57' W 014°34'1414.1
2015-Mar-26 22:32N 27°57' W 014°18'12 8.2
2015-Mar-26 21:07N 28°03' W 014°06'5 7.5
2015-Mar-26 20:28N 28°06' W 014°01'7 7.6
2015-Mar-26 19:33N 28°09' W 013°55'38 1.6
2015-Mar-25 19:12N 28°44' W 013°37'  
2015-Mar-22 03:32N 29°08' W 015°36'1111.4
2015-Mar-22 02:33N 28°57' W 015°32'1212.2
2015-Mar-22 01:33N 28°46' W 015°28'1212.4
2015-Mar-22 00:33N 28°34' W 015°23'1312.8
2015-Mar-21 23:33N 28°22' W 015°19'1313.0
2015-Mar-21 22:33N 28°09' W 015°22'3 2.5
2015-Mar-21 21:27N 28°08' W 015°25'0 0.0
2015-Mar-21 20:32N 28°08' W 015°25'0 0.0
2015-Mar-21 19:32N 28°08' W 015°25'0 0.0
2015-Mar-21 18:25N 28°08' W 015°25'0 0.0
2015-Mar-21 17:31N 28°08' W 015°25'0 0.0
2015-Mar-21 16:28N 28°08' W 015°25'0 0.0
2015-Mar-21 15:33N 28°08' W 015°25'0 0.0
2015-Mar-21 14:30N 28°08' W 015°25'0 0.0
2015-Mar-21 13:32N 28°08' W 015°25'0 0.0
2015-Mar-21 12:32N 28°08' W 015°25'0 0.0
2015-Mar-21 11:25N 28°08' W 015°25'0 0.0
2015-Mar-21 10:31N 28°08' W 015°25'0 0.0
2015-Mar-21 09:21N 28°08' W 015°25'0 0.0
2015-Mar-21 08:18N 28°08' W 015°25'0 0.0
2015-Mar-21 07:11N 28°08' W 015°25'0 0.0
2015-Mar-21 06:20N 28°08' W 015°25'0 0.0
2015-Mar-21 05:32N 28°08' W 015°25'0 0.0
2015-Mar-21 04:19N 28°08' W 015°25'0 0.0
2015-Mar-21 03:31N 28°08' W 015°25'0 0.0
2015-Mar-21 02:24N 28°08' W 015°25'0 0.0
2015-Mar-21 01:33N 28°08' W 015°25'0 0.1
2015-Mar-21 00:33N 28°08' W 015°25'4 4.3
2015-Mar-20 23:33N 28°11' W 015°22'1313.3
2015-Mar-20 22:33N 28°14' W 015°37'1413.6
2015-Mar-20 21:32N 28°17' W 015°52'1614.2
2015-Mar-20 20:25N 28°25' W 016°07'7 2.4
2015-Mar-20 17:32N 28°28' W 016°14'0 0.0
2015-Mar-20 14:25N 28°28' W 016°14'0 0.0
2015-Mar-20 13:33N 28°28' W 016°14'0 0.0
2015-Mar-20 12:24N 28°28' W 016°14'  
Track history (hours):
 
Tides and Currents Weather Stations Pressure Air Temp Water Temp Dewpoint Dewpoint Depression Visibility Wind Speed Wind Dir Waves Ship Positions

Aidablu

Last reported at 2015-Mar-30 11:26 UTC. Time now 2015-Mar-31 08:32 UTC.
Position N 32°39' W 016°54'.

Length 252 m; draft 7.3 m.

Type: Ship. MMSI: 247282500.

Date/timePositionNaut miles runAvg speedWind from/ knotsBaromVisibWave heightAir tempDewpointWater temp
2015-Mar-30 11:26N 32°39' W 016°54'0 0.1
2015-Mar-30 06:27N 32°38' W 016°54'7 6.2
2015-Mar-30 05:17N 32°32' W 016°52'1013.6
2015-Mar-30 04:33N 32°22' W 016°48'3213.2
2015-Mar-30 02:07N 31°52' W 016°36'4 6.7
2015-Mar-30 01:27N 31°47' W 016°35'16 6.7
2015-Mar-29 23:07N 31°32' W 016°29'4 7.0
2015-Mar-29 22:31N 31°28' W 016°28'8 7.3
2015-Mar-29 21:27N 31°21' W 016°25'147 7.8
2015-Mar-29 02:33N 29°01' W 015°33'1413.8
2015-Mar-29 01:33N 28°48' W 015°28'1313.4
2015-Mar-29 00:33N 28°35' W 015°24'1313.5
2015-Mar-28 23:33N 28°22' W 015°19'1413.7
2015-Mar-28 22:33N 28°09' W 015°22'3 2.6
2015-Mar-28 21:33N 28°08' W 015°25'0 0.0
2015-Mar-28 20:29N 28°08' W 015°25'0 0.0
2015-Mar-28 19:32N 28°08' W 015°25'0 0.0
2015-Mar-28 18:31N 28°08' W 015°25'0 0.0
2015-Mar-28 17:22N 28°08' W 015°25'0 0.0
2015-Mar-28 16:33N 28°08' W 015°25'0 0.0
2015-Mar-28 15:24N 28°08' W 015°25'0 0.0
2015-Mar-28 14:33N 28°08' W 015°25'0 0.0
2015-Mar-28 13:26N 28°08' W 015°25'0 0.0
2015-Mar-28 12:32N 28°08' W 015°25'0 0.0
2015-Mar-28 11:31N 28°08' W 015°25'0 0.0
2015-Mar-28 10:22N 28°08' W 015°25'0 0.0
2015-Mar-28 09:33N 28°08' W 015°25'0 0.0
2015-Mar-28 08:24N 28°08' W 015°25'0 0.0
2015-Mar-28 07:33N 28°08' W 015°25'0 0.0
2015-Mar-28 06:23N 28°08' W 015°25'0 0.0
2015-Mar-28 05:32N 28°08' W 015°25'0 0.0
2015-Mar-28 04:28N 28°08' W 015°25'0 0.0
2015-Mar-28 03:29N 28°08' W 015°25'0 0.0
2015-Mar-28 02:30N 28°08' W 015°25'0 0.0
2015-Mar-28 01:24N 28°08' W 015°25'0 0.3
2015-Mar-28 00:33N 28°08' W 015°25'5 4.5
2015-Mar-27 23:32N 28°12' W 015°23'1313.3
2015-Mar-27 22:33N 28°14' W 015°38'1413.1
2015-Mar-27 21:31N 28°17' W 015°53'1414.3
2015-Mar-27 20:33N 28°24' W 016°06'8 1.2
2015-Mar-27 13:31N 28°28' W 016°14'0 0.0
2015-Mar-27 10:27N 28°28' W 016°14'0 0.0
2015-Mar-27 08:14N 28°28' W 016°14'0 0.2
2015-Mar-27 07:31N 28°29' W 016°14'4 4.4
2015-Mar-27 06:33N 28°27' W 016°10'1212.4
2015-Mar-27 05:34N 28°21' W 015°58'1312.8
2015-Mar-27 04:34N 28°17' W 015°44'1313.1
2015-Mar-27 03:34N 28°16' W 015°29'1312.8
2015-Mar-27 02:33N 28°13' W 015°15'1313.3
2015-Mar-27 01:33N 28°09' W 015°00'1212.3
2015-Mar-27 00:34N 28°03' W 014°48'1413.8
2015-Mar-26 23:33N 27°57' W 014°34'1414.1
2015-Mar-26 22:32N 27°57' W 014°18'12 8.2
2015-Mar-26 21:07N 28°03' W 014°06'5 7.5
2015-Mar-26 20:28N 28°06' W 014°01'7 7.6
2015-Mar-26 19:33N 28°09' W 013°55'38 1.6
2015-Mar-25 19:12N 28°44' W 013°37'  
2015-Mar-22 03:32N 29°08' W 015°36'1111.4
2015-Mar-22 02:33N 28°57' W 015°32'1212.2
2015-Mar-22 01:33N 28°46' W 015°28'1212.4
2015-Mar-22 00:33N 28°34' W 015°23'1312.8
2015-Mar-21 23:33N 28°22' W 015°19'1313.0
2015-Mar-21 22:33N 28°09' W 015°22'3 2.5
2015-Mar-21 21:27N 28°08' W 015°25'0 0.0
2015-Mar-21 20:32N 28°08' W 015°25'0 0.0
2015-Mar-21 19:32N 28°08' W 015°25'0 0.0
2015-Mar-21 18:25N 28°08' W 015°25'0 0.0
2015-Mar-21 17:31N 28°08' W 015°25'0 0.0
2015-Mar-21 16:28N 28°08' W 015°25'0 0.0
2015-Mar-21 15:33N 28°08' W 015°25'0 0.0
2015-Mar-21 14:30N 28°08' W 015°25'0 0.0
2015-Mar-21 13:32N 28°08' W 015°25'0 0.0
2015-Mar-21 12:32N 28°08' W 015°25'0 0.0
2015-Mar-21 11:25N 28°08' W 015°25'0 0.0
2015-Mar-21 10:31N 28°08' W 015°25'0 0.0
2015-Mar-21 09:21N 28°08' W 015°25'0 0.0
2015-Mar-21 08:18N 28°08' W 015°25'0 0.0
2015-Mar-21 07:11N 28°08' W 015°25'0 0.0
2015-Mar-21 06:20N 28°08' W 015°25'0 0.0
2015-Mar-21 05:32N 28°08' W 015°25'0 0.0
2015-Mar-21 04:19N 28°08' W 015°25'0 0.0
2015-Mar-21 03:31N 28°08' W 015°25'0 0.0
2015-Mar-21 02:24N 28°08' W 015°25'0 0.0
2015-Mar-21 01:33N 28°08' W 015°25'0 0.1
2015-Mar-21 00:33N 28°08' W 015°25'4 4.3
2015-Mar-20 23:33N 28°11' W 015°22'1313.3
2015-Mar-20 22:33N 28°14' W 015°37'1413.6
2015-Mar-20 21:32N 28°17' W 015°52'1614.2
2015-Mar-20 20:25N 28°25' W 016°07'7 2.4
2015-Mar-20 17:32N 28°28' W 016°14'0 0.0
2015-Mar-20 14:25N 28°28' W 016°14'0 0.0
2015-Mar-20 13:33N 28°28' W 016°14'0 0.0
2015-Mar-20 12:24N 28°28' W 016°14'  

Dump ship's entire track history